Alldays Airport


Codes: FAAL/ADY
Name: Alldays Airport
City: Alldays
Country: South Africa
Elevation: 2600 ft.

Photos at Alldays Airport


   Photos courtesy of SpottingLog. You can add your own sightings and photos by signing up for a free trial today.



No photos found.

Weather at Alldays Airport


Time (UTC)DescriptionTempratureWindCloud coverageVisibilityPressureHumidity
17-Jun-2024 03:00Clear Sky11°C9 mph, SE0%10000m1025hPa68%
17-Jun-2024 06:00Clear Sky12°C7 mph, SE0%10000m1025hPa65%
17-Jun-2024 09:00Clear Sky17°C11 mph, NE0%10000m1024hPa47%
17-Jun-2024 12:00Clear Sky22°C9 mph, NE0%10000m1020hPa30%
17-Jun-2024 15:00Clear Sky20°C7 mph, NE0%10000m1019hPa33%
17-Jun-2024 18:00Clear Sky16°C9 mph, NE0%10000m1021hPa47%
17-Jun-2024 21:00Clear Sky14°C7 mph, E0%10000m1021hPa56%
18-Jun-2024 00:00Clear Sky12°C4 mph, SE0%10000m1021hPa64%
18-Jun-2024 03:00Clear Sky11°C4 mph, E0%10000m1020hPa70%
18-Jun-2024 06:00Clear Sky15°C4 mph, NE0%10000m1022hPa57%
18-Jun-2024 09:00Clear Sky21°C4 mph, N0%10000m1021hPa39%
18-Jun-2024 12:00Clear Sky24°C4 mph, NW0%10000m1017hPa30%
18-Jun-2024 15:00Clear Sky22°C4 mph, NW0%10000m1016hPa33%
18-Jun-2024 18:00Clear Sky17°C4 mph, NW0%10000m1018hPa44%
18-Jun-2024 21:00Clear Sky15°C4 mph, W0%10000m1018hPa50%
19-Jun-2024 00:00Clear Sky15°C7 mph, S1%10000m1018hPa50%
19-Jun-2024 03:00Clear Sky13°C4 mph, SW5%10000m1018hPa56%
19-Jun-2024 06:00Clear Sky17°C4 mph, SW4%10000m1019hPa42%
19-Jun-2024 09:00Clear Sky24°C4 mph, W4%10000m1019hPa24%
19-Jun-2024 12:00Clear Sky27°C4 mph, SW4%10000m1015hPa16%
19-Jun-2024 15:00Clear Sky24°C4 mph, SW8%10000m1015hPa19%
19-Jun-2024 18:00Clear Sky18°C2 mph, S4%10000m1017hPa25%
19-Jun-2024 21:00Clear Sky16°C7 mph, SE0%10000m1020hPa29%
20-Jun-2024 00:00Clear Sky15°C9 mph, SE0%10000m1020hPa34%
20-Jun-2024 03:00Clear Sky15°C9 mph, SE0%10000m1021hPa38%
20-Jun-2024 06:00Clear Sky15°C9 mph, SE0%10000m1024hPa46%
20-Jun-2024 09:00Clear Sky23°C13 mph, E2%10000m1023hPa30%
20-Jun-2024 12:00Clear Sky26°C18 mph, NE1%10000m1020hPa24%
20-Jun-2024 15:00Clear Sky23°C18 mph, NE0%10000m1021hPa31%
20-Jun-2024 18:00Clear Sky17°C13 mph, E0%10000m1024hPa52%
20-Jun-2024 21:00Clear Sky16°C13 mph, SE0%10000m1025hPa61%
21-Jun-2024 00:00Clear Sky15°C13 mph, SE0%10000m1024hPa67%
21-Jun-2024 03:00Clear Sky13°C9 mph, E0%10000m1025hPa78%
21-Jun-2024 06:00Clear Sky14°C11 mph, E0%10000m1027hPa76%
21-Jun-2024 09:00Clear Sky20°C13 mph, NE0%10000m1026hPa48%
21-Jun-2024 12:00Clear Sky23°C11 mph, NE0%10000m1022hPa33%
21-Jun-2024 15:00Clear Sky22°C9 mph, NE0%10000m1021hPa35%
21-Jun-2024 18:00Clear Sky17°C9 mph, NE0%10000m1024hPa48%
21-Jun-2024 21:00Clear Sky15°C9 mph, E0%10000m1024hPa58%
22-Jun-2024 00:00Clear Sky14°C7 mph, E0%10000m1024hPa66%